sensor_id;sensor_type;location;lat;lon;timestamp;temperature;humidity
42261;DHT22;27926;48.062;7.474;2022-07-03T00:01:13;16.80;99.90
42261;DHT22;27926;48.062;7.474;2022-07-03T00:03:37;16.90;99.90
42261;DHT22;27926;48.062;7.474;2022-07-03T00:06:02;17.00;99.90
42261;DHT22;27926;48.062;7.474;2022-07-03T00:08:27;17.10;99.90
42261;DHT22;27926;48.062;7.474;2022-07-03T00:10:51;17.20;99.90
42261;DHT22;27926;48.062;7.474;2022-07-03T00:13:16;17.20;99.90
42261;DHT22;27926;48.062;7.474;2022-07-03T00:15:41;17.20;99.90
42261;DHT22;27926;48.062;7.474;2022-07-03T00:18:05;17.30;99.90
42261;DHT22;27926;48.062;7.474;2022-07-03T00:20:38;17.30;99.90
42261;DHT22;27926;48.062;7.474;2022-07-03T00:23:09;17.30;99.90
42261;DHT22;27926;48.062;7.474;2022-07-03T00:25:34;17.20;99.90
42261;DHT22;27926;48.062;7.474;2022-07-03T00:28:00;17.10;99.90
42261;DHT22;27926;48.062;7.474;2022-07-03T00:30:26;17.00;99.90
42261;DHT22;27926;48.062;7.474;2022-07-03T00:32:52;16.90;99.90
42261;DHT22;27926;48.062;7.474;2022-07-03T00:35:17;16.80;99.90
42261;DHT22;27926;48.062;7.474;2022-07-03T00:37:42;16.60;99.90
42261;DHT22;27926;48.062;7.474;2022-07-03T00:40:07;16.60;99.90
42261;DHT22;27926;48.062;7.474;2022-07-03T00:42:35;16.50;99.90
42261;DHT22;27926;48.062;7.474;2022-07-03T00:45:02;16.40;99.90
42261;DHT22;27926;48.062;7.474;2022-07-03T00:47:27;16.30;99.90
42261;DHT22;27926;48.062;7.474;2022-07-03T00:49:55;16.20;99.90
42261;DHT22;27926;48.062;7.474;2022-07-03T00:52:22;16.10;99.90
42261;DHT22;27926;48.062;7.474;2022-07-03T00:54:55;16.10;99.90
42261;DHT22;27926;48.062;7.474;2022-07-03T00:57:21;16.00;99.90
42261;DHT22;27926;48.062;7.474;2022-07-03T00:59:46;16.00;99.90
42261;DHT22;27926;48.062;7.474;2022-07-03T01:08:02;15.80;99.90
42261;DHT22;27926;48.062;7.474;2022-07-03T01:16:08;15.70;99.90
42261;DHT22;27926;48.062;7.474;2022-07-03T01:18:50;15.70;99.90
42261;DHT22;27926;48.062;7.474;2022-07-03T01:21:35;15.60;99.90
42261;DHT22;27926;48.062;7.474;2022-07-03T01:27:10;15.50;99.90
42261;DHT22;27926;48.062;7.474;2022-07-03T01:30:04;15.40;99.90
42261;DHT22;27926;48.062;7.474;2022-07-03T01:32:33;15.40;99.90
42261;DHT22;27926;48.062;7.474;2022-07-03T01:35:02;15.40;99.90
42261;DHT22;27926;48.062;7.474;2022-07-03T01:37:29;15.40;99.90
42261;DHT22;27926;48.062;7.474;2022-07-03T01:39:57;15.40;99.90
42261;DHT22;27926;48.062;7.474;2022-07-03T01:42:23;15.40;99.90
42261;DHT22;27926;48.062;7.474;2022-07-03T01:44:48;15.30;99.90
42261;DHT22;27926;48.062;7.474;2022-07-03T01:47:15;15.30;99.90
42261;DHT22;27926;48.062;7.474;2022-07-03T01:49:42;15.30;99.90
42261;DHT22;27926;48.062;7.474;2022-07-03T01:52:12;15.30;99.90
42261;DHT22;27926;48.062;7.474;2022-07-03T01:54:39;15.30;99.90
42261;DHT22;27926;48.062;7.474;2022-07-03T01:57:06;15.20;99.90
42261;DHT22;27926;48.062;7.474;2022-07-03T01:59:31;15.10;99.90
42261;DHT22;27926;48.062;7.474;2022-07-03T02:02:09;15.10;99.90
42261;DHT22;27926;48.062;7.474;2022-07-03T02:10:06;14.90;99.90
42261;DHT22;27926;48.062;7.474;2022-07-03T02:12:39;14.90;99.90
42261;DHT22;27926;48.062;7.474;2022-07-03T02:15:07;14.90;99.90
42261;DHT22;27926;48.062;7.474;2022-07-03T02:17:44;14.90;99.90
42261;DHT22;27926;48.062;7.474;2022-07-03T02:20:10;14.90;99.90
42261;DHT22;27926;48.062;7.474;2022-07-03T02:22:40;14.80;99.90
42261;DHT22;27926;48.062;7.474;2022-07-03T02:25:22;14.70;99.90
42261;DHT22;27926;48.062;7.474;2022-07-03T02:28:03;14.60;99.90
42261;DHT22;27926;48.062;7.474;2022-07-03T02:30:29;14.60;99.90
42261;DHT22;27926;48.062;7.474;2022-07-03T02:32:56;14.70;99.90
42261;DHT22;27926;48.062;7.474;2022-07-03T02:35:30;14.60;99.90
42261;DHT22;27926;48.062;7.474;2022-07-03T02:38:16;14.50;99.90
42261;DHT22;27926;48.062;7.474;2022-07-03T02:41:14;14.50;99.90
42261;DHT22;27926;48.062;7.474;2022-07-03T02:46:40;14.40;99.90
42261;DHT22;27926;48.062;7.474;2022-07-03T02:49:20;14.40;99.90
42261;DHT22;27926;48.062;7.474;2022-07-03T02:54:47;14.40;99.90
42261;DHT22;27926;48.062;7.474;2022-07-03T02:57:14;14.40;99.90
42261;DHT22;27926;48.062;7.474;2022-07-03T02:59:57;14.40;99.90
42261;DHT22;27926;48.062;7.474;2022-07-03T03:05:15;14.40;99.90
42261;DHT22;27926;48.062;7.474;2022-07-03T03:10:47;14.20;99.90
42261;DHT22;27926;48.062;7.474;2022-07-03T03:13:14;14.30;99.90
42261;DHT22;27926;48.062;7.474;2022-07-03T03:15:51;14.20;99.90
42261;DHT22;27926;48.062;7.474;2022-07-03T03:18:21;14.20;99.90
42261;DHT22;27926;48.062;7.474;2022-07-03T03:20:48;14.20;99.90
42261;DHT22;27926;48.062;7.474;2022-07-03T03:23:46;14.30;99.90
42261;DHT22;27926;48.062;7.474;2022-07-03T03:28:44;14.40;99.90
42261;DHT22;27926;48.062;7.474;2022-07-03T03:31:09;14.40;99.90
42261;DHT22;27926;48.062;7.474;2022-07-03T03:33:39;14.40;99.90
42261;DHT22;27926;48.062;7.474;2022-07-03T03:36:07;14.40;99.90
42261;DHT22;27926;48.062;7.474;2022-07-03T03:38:32;14.40;99.90
42261;DHT22;27926;48.062;7.474;2022-07-03T03:40:56;14.40;99.90
42261;DHT22;27926;48.062;7.474;2022-07-03T03:43:21;14.40;99.90
42261;DHT22;27926;48.062;7.474;2022-07-03T03:45:46;14.30;99.90
42261;DHT22;27926;48.062;7.474;2022-07-03T03:48:11;14.30;99.90
42261;DHT22;27926;48.062;7.474;2022-07-03T03:50:35;14.30;99.90
42261;DHT22;27926;48.062;7.474;2022-07-03T03:53:00;14.30;99.90
42261;DHT22;27926;48.062;7.474;2022-07-03T03:55:25;14.40;99.90
42261;DHT22;27926;48.062;7.474;2022-07-03T03:57:49;14.40;99.90
42261;DHT22;27926;48.062;7.474;2022-07-03T04:00:14;14.40;99.90
42261;DHT22;27926;48.062;7.474;2022-07-03T04:02:39;14.40;99.90
42261;DHT22;27926;48.062;7.474;2022-07-03T04:05:04;14.30;99.90
42261;DHT22;27926;48.062;7.474;2022-07-03T04:07:29;14.40;99.90
42261;DHT22;27926;48.062;7.474;2022-07-03T04:09:54;14.50;99.90
42261;DHT22;27926;48.062;7.474;2022-07-03T04:12:18;14.50;99.90
42261;DHT22;27926;48.062;7.474;2022-07-03T04:14:43;14.50;99.90
42261;DHT22;27926;48.062;7.474;2022-07-03T04:17:07;14.70;99.90
42261;DHT22;27926;48.062;7.474;2022-07-03T04:19:32;14.70;99.90
42261;DHT22;27926;48.062;7.474;2022-07-03T04:21:57;14.80;99.90
42261;DHT22;27926;48.062;7.474;2022-07-03T04:24:21;14.90;99.90
42261;DHT22;27926;48.062;7.474;2022-07-03T04:26:46;15.00;99.90
42261;DHT22;27926;48.062;7.474;2022-07-03T04:29:11;15.10;99.90
42261;DHT22;27926;48.062;7.474;2022-07-03T04:31:36;15.20;99.90
42261;DHT22;27926;48.062;7.474;2022-07-03T04:34:01;15.40;99.90
42261;DHT22;27926;48.062;7.474;2022-07-03T04:36:25;16.00;99.90
42261;DHT22;27926;48.062;7.474;2022-07-03T04:38:50;17.00;99.90
42261;DHT22;27926;48.062;7.474;2022-07-03T04:41:14;18.30;99.90
42261;DHT22;27926;48.062;7.474;2022-07-03T04:43:39;19.80;99.90
42261;DHT22;27926;48.062;7.474;2022-07-03T04:46:04;21.20;99.90
42261;DHT22;27926;48.062;7.474;2022-07-03T04:48:29;22.50;99.90
42261;DHT22;27926;48.062;7.474;2022-07-03T04:50:54;23.60;99.90
42261;DHT22;27926;48.062;7.474;2022-07-03T04:53:18;24.60;99.90
42261;DHT22;27926;48.062;7.474;2022-07-03T04:55:44;25.50;99.90
42261;DHT22;27926;48.062;7.474;2022-07-03T04:58:08;26.10;99.60
42261;DHT22;27926;48.062;7.474;2022-07-03T05:00:33;26.70;98.90
42261;DHT22;27926;48.062;7.474;2022-07-03T05:02:58;27.20;98.30
42261;DHT22;27926;48.062;7.474;2022-07-03T05:05:24;27.70;97.00
42261;DHT22;27926;48.062;7.474;2022-07-03T05:07:49;28.30;96.50
42261;DHT22;27926;48.062;7.474;2022-07-03T05:10:13;28.80;96.00
42261;DHT22;27926;48.062;7.474;2022-07-03T05:12:38;29.20;95.10
42261;DHT22;27926;48.062;7.474;2022-07-03T05:15:03;29.20;94.50
42261;DHT22;27926;48.062;7.474;2022-07-03T05:17:28;29.20;94.50
42261;DHT22;27926;48.062;7.474;2022-07-03T05:19:53;29.30;94.40
42261;DHT22;27926;48.062;7.474;2022-07-03T05:22:37;29.60;94.10
42261;DHT22;27926;48.062;7.474;2022-07-03T05:25:02;30.00;93.80
42261;DHT22;27926;48.062;7.474;2022-07-03T05:27:27;30.20;93.00
42261;DHT22;27926;48.062;7.474;2022-07-03T05:29:51;30.20;93.40
42261;DHT22;27926;48.062;7.474;2022-07-03T05:32:16;30.40;93.10
42261;DHT22;27926;48.062;7.474;2022-07-03T05:34:41;30.40;92.40
42261;DHT22;27926;48.062;7.474;2022-07-03T05:37:05;30.50;92.70
42261;DHT22;27926;48.062;7.474;2022-07-03T05:39:30;30.50;92.70
42261;DHT22;27926;48.062;7.474;2022-07-03T05:41:57;30.10;92.70
42261;DHT22;27926;48.062;7.474;2022-07-03T05:44:22;29.90;93.00
42261;DHT22;27926;48.062;7.474;2022-07-03T05:46:47;29.80;92.40
42261;DHT22;27926;48.062;7.474;2022-07-03T05:49:11;29.60;92.60
42261;DHT22;27926;48.062;7.474;2022-07-03T05:51:36;29.70;93.00
42261;DHT22;27926;48.062;7.474;2022-07-03T05:54:00;29.40;93.00
42261;DHT22;27926;48.062;7.474;2022-07-03T05:56:25;29.30;92.90
42261;DHT22;27926;48.062;7.474;2022-07-03T05:58:50;29.10;93.40
42261;DHT22;27926;48.062;7.474;2022-07-03T06:01:15;28.80;93.80
42261;DHT22;27926;48.062;7.474;2022-07-03T06:03:39;28.90;93.40
42261;DHT22;27926;48.062;7.474;2022-07-03T06:06:04;28.90;93.70
42261;DHT22;27926;48.062;7.474;2022-07-03T06:08:29;28.90;93.60
42261;DHT22;27926;48.062;7.474;2022-07-03T06:10:53;28.80;93.80
42261;DHT22;27926;48.062;7.474;2022-07-03T06:13:18;28.70;93.40
42261;DHT22;27926;48.062;7.474;2022-07-03T06:15:43;28.70;93.60
42261;DHT22;27926;48.062;7.474;2022-07-03T06:18:07;28.80;93.60
42261;DHT22;27926;48.062;7.474;2022-07-03T06:20:32;28.80;93.60
42261;DHT22;27926;48.062;7.474;2022-07-03T06:22:56;28.70;93.50
42261;DHT22;27926;48.062;7.474;2022-07-03T06:25:21;28.50;93.70
42261;DHT22;27926;48.062;7.474;2022-07-03T06:27:46;28.10;94.10
42261;DHT22;27926;48.062;7.474;2022-07-03T06:30:11;27.80;94.40
42261;DHT22;27926;48.062;7.474;2022-07-03T06:32:35;27.50;94.50
42261;DHT22;27926;48.062;7.474;2022-07-03T06:35:00;27.50;94.80
42261;DHT22;27926;48.062;7.474;2022-07-03T06:37:25;27.40;95.00
42261;DHT22;27926;48.062;7.474;2022-07-03T06:39:50;27.40;94.80
42261;DHT22;27926;48.062;7.474;2022-07-03T06:42:14;27.60;94.70
42261;DHT22;27926;48.062;7.474;2022-07-03T06:44:39;27.70;94.70
42261;DHT22;27926;48.062;7.474;2022-07-03T06:47:05;27.60;94.50
42261;DHT22;27926;48.062;7.474;2022-07-03T06:49:32;27.60;94.70
42261;DHT22;27926;48.062;7.474;2022-07-03T06:51:57;27.70;94.80
42261;DHT22;27926;48.062;7.474;2022-07-03T06:54:21;27.60;94.70
42261;DHT22;27926;48.062;7.474;2022-07-03T06:56:46;27.60;95.00
42261;DHT22;27926;48.062;7.474;2022-07-03T06:59:10;27.80;94.40
42261;DHT22;27926;48.062;7.474;2022-07-03T07:01:35;27.90;94.40
42261;DHT22;27926;48.062;7.474;2022-07-03T07:04:00;27.80;94.50
42261;DHT22;27926;48.062;7.474;2022-07-03T07:06:24;27.80;94.40
42261;DHT22;27926;48.062;7.474;2022-07-03T07:08:49;27.60;94.70
42261;DHT22;27926;48.062;7.474;2022-07-03T07:11:14;27.40;94.90
42261;DHT22;27926;48.062;7.474;2022-07-03T07:13:39;27.30;95.30
42261;DHT22;27926;48.062;7.474;2022-07-03T07:16:03;27.20;95.70
42261;DHT22;27926;48.062;7.474;2022-07-03T07:18:28;27.10;95.50
42261;DHT22;27926;48.062;7.474;2022-07-03T07:20:53;27.20;95.80
42261;DHT22;27926;48.062;7.474;2022-07-03T07:23:17;27.20;95.40
42261;DHT22;27926;48.062;7.474;2022-07-03T07:25:42;27.30;95.40
42261;DHT22;27926;48.062;7.474;2022-07-03T07:28:07;27.50;94.80
42261;DHT22;27926;48.062;7.474;2022-07-03T07:30:31;27.40;94.60
42261;DHT22;27926;48.062;7.474;2022-07-03T07:32:56;27.30;94.40
42261;DHT22;27926;48.062;7.474;2022-07-03T07:35:21;27.40;94.80
42261;DHT22;27926;48.062;7.474;2022-07-03T07:37:45;27.60;94.90
42261;DHT22;27926;48.062;7.474;2022-07-03T07:40:10;27.50;94.60
42261;DHT22;27926;48.062;7.474;2022-07-03T07:42:35;27.60;94.90
42261;DHT22;27926;48.062;7.474;2022-07-03T07:45:03;27.60;94.60
42261;DHT22;27926;48.062;7.474;2022-07-03T07:47:28;27.90;94.60
42261;DHT22;27926;48.062;7.474;2022-07-03T07:49:52;28.10;94.70
42261;DHT22;27926;48.062;7.474;2022-07-03T07:52:17;28.50;93.80
42261;DHT22;27926;48.062;7.474;2022-07-03T07:54:42;28.80;93.60
42261;DHT22;27926;48.062;7.474;2022-07-03T07:57:06;28.80;93.80
42261;DHT22;27926;48.062;7.474;2022-07-03T07:59:31;28.90;93.30
42261;DHT22;27926;48.062;7.474;2022-07-03T08:01:55;28.80;93.20
42261;DHT22;27926;48.062;7.474;2022-07-03T08:04:38;28.90;93.20
42261;DHT22;27926;48.062;7.474;2022-07-03T08:07:22;29.00;93.20
42261;DHT22;27926;48.062;7.474;2022-07-03T08:09:46;29.00;93.70
42261;DHT22;27926;48.062;7.474;2022-07-03T08:12:11;29.10;93.60
42261;DHT22;27926;48.062;7.474;2022-07-03T08:14:35;28.90;93.10
42261;DHT22;27926;48.062;7.474;2022-07-03T08:17:00;29.00;92.70
42261;DHT22;27926;48.062;7.474;2022-07-03T08:19:25;29.20;92.90
42261;DHT22;27926;48.062;7.474;2022-07-03T08:21:49;28.90;92.50
42261;DHT22;27926;48.062;7.474;2022-07-03T08:24:14;28.80;92.60
42261;DHT22;27926;48.062;7.474;2022-07-03T08:26:40;28.60;93.80
42261;DHT22;27926;48.062;7.474;2022-07-03T08:29:05;28.70;94.10
42261;DHT22;27926;48.062;7.474;2022-07-03T08:31:29;28.70;93.50
42261;DHT22;27926;48.062;7.474;2022-07-03T08:33:54;28.80;93.20
42261;DHT22;27926;48.062;7.474;2022-07-03T08:36:19;28.70;94.00
42261;DHT22;27926;48.062;7.474;2022-07-03T08:38:43;28.60;94.00
42261;DHT22;27926;48.062;7.474;2022-07-03T08:41:08;28.50;93.00
42261;DHT22;27926;48.062;7.474;2022-07-03T08:43:34;28.50;94.20
42261;DHT22;27926;48.062;7.474;2022-07-03T08:46:00;28.60;93.60
42261;DHT22;27926;48.062;7.474;2022-07-03T08:48:28;28.50;92.50
42261;DHT22;27926;48.062;7.474;2022-07-03T08:50:54;28.60;93.50
42261;DHT22;27926;48.062;7.474;2022-07-03T08:53:19;28.50;92.90
42261;DHT22;27926;48.062;7.474;2022-07-03T08:55:53;28.60;93.40
42261;DHT22;27926;48.062;7.474;2022-07-03T08:58:18;28.70;93.00
42261;DHT22;27926;48.062;7.474;2022-07-03T09:00:45;28.80;93.30
42261;DHT22;27926;48.062;7.474;2022-07-03T09:03:11;28.80;91.60
42261;DHT22;27926;48.062;7.474;2022-07-03T09:05:37;28.70;91.30
42261;DHT22;27926;48.062;7.474;2022-07-03T09:08:02;28.80;92.30
42261;DHT22;27926;48.062;7.474;2022-07-03T09:10:29;28.80;92.30
42261;DHT22;27926;48.062;7.474;2022-07-03T09:12:55;28.90;88.30
42261;DHT22;27926;48.062;7.474;2022-07-03T09:15:19;29.00;90.50
42261;DHT22;27926;48.062;7.474;2022-07-03T09:18:09;29.00;90.20
42261;DHT22;27926;48.062;7.474;2022-07-03T09:20:40;29.10;86.30
42261;DHT22;27926;48.062;7.474;2022-07-03T09:23:19;29.10;88.00
42261;DHT22;27926;48.062;7.474;2022-07-03T09:25:57;29.10;85.80
42261;DHT22;27926;48.062;7.474;2022-07-03T09:28:24;29.10;86.30
42261;DHT22;27926;48.062;7.474;2022-07-03T09:31:01;29.10;87.60
42261;DHT22;27926;48.062;7.474;2022-07-03T09:33:26;29.20;87.00
42261;DHT22;27926;48.062;7.474;2022-07-03T09:35:55;29.10;82.40
42261;DHT22;27926;48.062;7.474;2022-07-03T09:38:20;29.10;83.60
42261;DHT22;27926;48.062;7.474;2022-07-03T09:40:49;29.00;84.50
42261;DHT22;27926;48.062;7.474;2022-07-03T09:43:15;28.70;83.30
42261;DHT22;27926;48.062;7.474;2022-07-03T09:46:02;28.80;85.10
42261;DHT22;27926;48.062;7.474;2022-07-03T09:48:34;29.00;86.50
42261;DHT22;27926;48.062;7.474;2022-07-03T09:51:20;29.10;86.70
42261;DHT22;27926;48.062;7.474;2022-07-03T09:53:57;29.10;85.20
42261;DHT22;27926;48.062;7.474;2022-07-03T09:56:38;29.00;84.80
42261;DHT22;27926;48.062;7.474;2022-07-03T09:59:11;29.10;85.90
42261;DHT22;27926;48.062;7.474;2022-07-03T10:01:41;29.00;83.00
42261;DHT22;27926;48.062;7.474;2022-07-03T10:07:08;29.10;85.60
42261;DHT22;27926;48.062;7.474;2022-07-03T10:09:35;29.00;82.00
42261;DHT22;27926;48.062;7.474;2022-07-03T10:12:01;28.90;82.70
42261;DHT22;27926;48.062;7.474;2022-07-03T10:14:28;28.90;83.60
42261;DHT22;27926;48.062;7.474;2022-07-03T10:16:53;28.90;85.30
42261;DHT22;27926;48.062;7.474;2022-07-03T10:19:22;29.00;82.40
42261;DHT22;27926;48.062;7.474;2022-07-03T10:22:02;29.00;83.00
42261;DHT22;27926;48.062;7.474;2022-07-03T10:24:31;28.90;84.70
42261;DHT22;27926;48.062;7.474;2022-07-03T10:26:57;29.10;84.90
42261;DHT22;27926;48.062;7.474;2022-07-03T10:29:24;29.10;85.80
42261;DHT22;27926;48.062;7.474;2022-07-03T10:31:49;29.30;86.40
42261;DHT22;27926;48.062;7.474;2022-07-03T10:34:22;29.50;83.90
42261;DHT22;27926;48.062;7.474;2022-07-03T10:36:51;29.60;84.10
42261;DHT22;27926;48.062;7.474;2022-07-03T10:42:27;29.40;84.50
42261;DHT22;27926;48.062;7.474;2022-07-03T10:45:13;29.30;85.80
42261;DHT22;27926;48.062;7.474;2022-07-03T10:47:50;29.30;85.50
42261;DHT22;27926;48.062;7.474;2022-07-03T10:50:23;29.50;86.40
42261;DHT22;27926;48.062;7.474;2022-07-03T10:52:48;29.50;86.80
42261;DHT22;27926;48.062;7.474;2022-07-03T10:55:14;29.60;85.70
42261;DHT22;27926;48.062;7.474;2022-07-03T10:57:40;29.70;87.50
42261;DHT22;27926;48.062;7.474;2022-07-03T11:02:36;29.60;85.60
42261;DHT22;27926;48.062;7.474;2022-07-03T11:07:29;29.70;82.60
42261;DHT22;27926;48.062;7.474;2022-07-03T11:25:47;29.90;84.50
42261;DHT22;27926;48.062;7.474;2022-07-03T11:36:32;29.90;85.30
42261;DHT22;27926;48.062;7.474;2022-07-03T11:41:26;30.10;86.20
42261;DHT22;27926;48.062;7.474;2022-07-03T11:44:00;30.20;85.50
42261;DHT22;27926;48.062;7.474;2022-07-03T11:46:29;30.10;84.80
42261;DHT22;27926;48.062;7.474;2022-07-03T11:51:41;30.40;85.00
42261;DHT22;27926;48.062;7.474;2022-07-03T11:54:09;30.50;84.80
42261;DHT22;27926;48.062;7.474;2022-07-03T11:56:35;30.50;84.30
42261;DHT22;27926;48.062;7.474;2022-07-03T11:59:02;30.80;85.70
42261;DHT22;27926;48.062;7.474;2022-07-03T12:01:32;30.80;86.30
42261;DHT22;27926;48.062;7.474;2022-07-03T12:04:12;30.80;84.30
42261;DHT22;27926;48.062;7.474;2022-07-03T12:07:14;30.70;84.50
42261;DHT22;27926;48.062;7.474;2022-07-03T12:09:36;30.60;84.70
42261;DHT22;27926;48.062;7.474;2022-07-03T12:12:06;30.50;85.00
42261;DHT22;27926;48.062;7.474;2022-07-03T12:14:48;30.70;85.60
42261;DHT22;27926;48.062;7.474;2022-07-03T12:17:18;30.80;84.10
42261;DHT22;27926;48.062;7.474;2022-07-03T12:19:50;30.80;84.50
42261;DHT22;27926;48.062;7.474;2022-07-03T12:27:33;30.80;84.80
42261;DHT22;27926;48.062;7.474;2022-07-03T12:29:59;30.80;85.50
42261;DHT22;27926;48.062;7.474;2022-07-03T12:32:24;30.80;83.10
42261;DHT22;27926;48.062;7.474;2022-07-03T12:34:48;30.70;85.30
42261;DHT22;27926;48.062;7.474;2022-07-03T12:37:13;30.70;84.50
42261;DHT22;27926;48.062;7.474;2022-07-03T12:39:46;30.70;85.30
42261;DHT22;27926;48.062;7.474;2022-07-03T12:42:28;30.80;84.10
42261;DHT22;27926;48.062;7.474;2022-07-03T12:45:01;30.80;84.60
42261;DHT22;27926;48.062;7.474;2022-07-03T12:47:28;30.90;86.60
42261;DHT22;27926;48.062;7.474;2022-07-03T12:50:00;30.90;85.50
42261;DHT22;27926;48.062;7.474;2022-07-03T12:52:27;30.90;84.20
42261;DHT22;27926;48.062;7.474;2022-07-03T12:54:52;31.00;86.10
42261;DHT22;27926;48.062;7.474;2022-07-03T12:57:17;31.10;86.50
42261;DHT22;27926;48.062;7.474;2022-07-03T13:00:06;31.00;84.00
42261;DHT22;27926;48.062;7.474;2022-07-03T13:02:33;31.00;86.40
42261;DHT22;27926;48.062;7.474;2022-07-03T13:04:59;31.10;86.40
42261;DHT22;27926;48.062;7.474;2022-07-03T13:07:28;31.20;83.50
42261;DHT22;27926;48.062;7.474;2022-07-03T13:09:53;31.20;85.60
42261;DHT22;27926;48.062;7.474;2022-07-03T13:12:21;31.30;86.40
42261;DHT22;27926;48.062;7.474;2022-07-03T13:14:59;31.40;85.00
42261;DHT22;27926;48.062;7.474;2022-07-03T13:17:49;31.50;85.30
42261;DHT22;27926;48.062;7.474;2022-07-03T13:20:09;31.50;85.30
42261;DHT22;27926;48.062;7.474;2022-07-03T13:22:33;31.40;84.40
42261;DHT22;27926;48.062;7.474;2022-07-03T13:24:58;31.30;83.60
42261;DHT22;27926;48.062;7.474;2022-07-03T13:27:23;31.40;84.20
42261;DHT22;27926;48.062;7.474;2022-07-03T13:29:47;31.40;83.10
42261;DHT22;27926;48.062;7.474;2022-07-03T13:32:12;31.40;83.40
42261;DHT22;27926;48.062;7.474;2022-07-03T13:34:36;31.50;83.60
42261;DHT22;27926;48.062;7.474;2022-07-03T13:37:01;31.50;83.70
42261;DHT22;27926;48.062;7.474;2022-07-03T13:39:25;31.50;81.40
42261;DHT22;27926;48.062;7.474;2022-07-03T13:41:50;31.60;81.50
42261;DHT22;27926;48.062;7.474;2022-07-03T13:44:15;31.60;80.50
42261;DHT22;27926;48.062;7.474;2022-07-03T13:46:40;31.50;80.60
42261;DHT22;27926;48.062;7.474;2022-07-03T13:49:05;31.40;82.90
42261;DHT22;27926;48.062;7.474;2022-07-03T13:51:29;31.40;80.80
42261;DHT22;27926;48.062;7.474;2022-07-03T13:53:54;31.30;79.30
42261;DHT22;27926;48.062;7.474;2022-07-03T13:56:19;31.30;79.80
42261;DHT22;27926;48.062;7.474;2022-07-03T13:58:44;31.30;79.10
42261;DHT22;27926;48.062;7.474;2022-07-03T14:01:09;31.40;78.20
42261;DHT22;27926;48.062;7.474;2022-07-03T14:03:33;31.40;79.60
42261;DHT22;27926;48.062;7.474;2022-07-03T14:06:01;31.60;78.70
42261;DHT22;27926;48.062;7.474;2022-07-03T14:08:26;31.60;80.20
42261;DHT22;27926;48.062;7.474;2022-07-03T14:10:50;31.60;79.10
42261;DHT22;27926;48.062;7.474;2022-07-03T14:13:15;31.60;79.20
42261;DHT22;27926;48.062;7.474;2022-07-03T14:15:40;31.60;82.70
42261;DHT22;27926;48.062;7.474;2022-07-03T14:18:04;31.70;79.50
42261;DHT22;27926;48.062;7.474;2022-07-03T14:20:29;31.70;80.20
42261;DHT22;27926;48.062;7.474;2022-07-03T14:22:54;31.90;78.60
42261;DHT22;27926;48.062;7.474;2022-07-03T14:25:19;32.00;77.90
42261;DHT22;27926;48.062;7.474;2022-07-03T14:27:43;32.10;78.40
42261;DHT22;27926;48.062;7.474;2022-07-03T14:30:27;32.20;80.20
42261;DHT22;27926;48.062;7.474;2022-07-03T14:33:10;32.30;78.00
42261;DHT22;27926;48.062;7.474;2022-07-03T14:35:35;32.40;76.90
42261;DHT22;27926;48.062;7.474;2022-07-03T14:38:00;32.50;78.00
42261;DHT22;27926;48.062;7.474;2022-07-03T14:40:24;32.50;76.80
42261;DHT22;27926;48.062;7.474;2022-07-03T14:42:49;32.50;79.00
42261;DHT22;27926;48.062;7.474;2022-07-03T14:45:14;32.70;78.40
42261;DHT22;27926;48.062;7.474;2022-07-03T14:47:38;32.80;78.70
42261;DHT22;27926;48.062;7.474;2022-07-03T14:50:03;32.70;77.00
42261;DHT22;27926;48.062;7.474;2022-07-03T14:52:28;32.30;76.90
42261;DHT22;27926;48.062;7.474;2022-07-03T14:54:54;32.10;78.30
42261;DHT22;27926;48.062;7.474;2022-07-03T15:00:12;31.60;79.60
42261;DHT22;27926;48.062;7.474;2022-07-03T15:03:42;31.50;79.50
42261;DHT22;27926;48.062;7.474;2022-07-03T15:05:39;31.50;79.70
42261;DHT22;27926;48.062;7.474;2022-07-03T15:10:44;31.50;79.80
42261;DHT22;27926;48.062;7.474;2022-07-03T15:13:08;31.40;80.60
42261;DHT22;27926;48.062;7.474;2022-07-03T15:15:33;31.30;81.10
42261;DHT22;27926;48.062;7.474;2022-07-03T15:18:01;31.20;81.90
42261;DHT22;27926;48.062;7.474;2022-07-03T15:20:32;31.00;82.70
42261;DHT22;27926;48.062;7.474;2022-07-03T15:23:00;30.90;80.70
42261;DHT22;27926;48.062;7.474;2022-07-03T15:25:26;30.90;80.90
42261;DHT22;27926;48.062;7.474;2022-07-03T15:27:53;30.80;82.90
42261;DHT22;27926;48.062;7.474;2022-07-03T15:30:19;30.80;82.90
42261;DHT22;27926;48.062;7.474;2022-07-03T15:32:48;30.80;83.30
42261;DHT22;27926;48.062;7.474;2022-07-03T15:35:17;30.80;84.60
42261;DHT22;27926;48.062;7.474;2022-07-03T15:40:47;30.90;87.80
42261;DHT22;27926;48.062;7.474;2022-07-03T15:44:11;30.90;89.50
42261;DHT22;27926;48.062;7.474;2022-07-03T15:46:23;30.80;89.00
42261;DHT22;27926;48.062;7.474;2022-07-03T15:52:03;30.70;86.60
42261;DHT22;27926;48.062;7.474;2022-07-03T15:55:06;30.70;87.10
42261;DHT22;27926;48.062;7.474;2022-07-03T16:00:22;30.80;89.30
42261;DHT22;27926;48.062;7.474;2022-07-03T16:03:20;30.80;87.80
42261;DHT22;27926;48.062;7.474;2022-07-03T16:05:47;30.70;86.20
42261;DHT22;27926;48.062;7.474;2022-07-03T16:08:13;30.70;86.20
42261;DHT22;27926;48.062;7.474;2022-07-03T16:10:39;30.60;84.80
42261;DHT22;27926;48.062;7.474;2022-07-03T16:13:05;30.50;84.70
42261;DHT22;27926;48.062;7.474;2022-07-03T16:15:40;30.40;82.30
42261;DHT22;27926;48.062;7.474;2022-07-03T16:18:06;30.40;84.60
42261;DHT22;27926;48.062;7.474;2022-07-03T16:20:31;30.30;84.60
42261;DHT22;27926;48.062;7.474;2022-07-03T16:23:00;30.30;87.20
42261;DHT22;27926;48.062;7.474;2022-07-03T16:25:25;30.40;84.90
42261;DHT22;27926;48.062;7.474;2022-07-03T16:27:50;30.40;89.90
42261;DHT22;27926;48.062;7.474;2022-07-03T16:30:15;30.40;85.30
42261;DHT22;27926;48.062;7.474;2022-07-03T16:32:42;30.40;82.80
42261;DHT22;27926;48.062;7.474;2022-07-03T16:35:11;30.20;80.20
42261;DHT22;27926;48.062;7.474;2022-07-03T16:40:04;30.10;81.40
42261;DHT22;27926;48.062;7.474;2022-07-03T16:42:34;30.10;80.90
42261;DHT22;27926;48.062;7.474;2022-07-03T16:45:08;30.00;83.20
42261;DHT22;27926;48.062;7.474;2022-07-03T16:47:47;29.90;82.50
42261;DHT22;27926;48.062;7.474;2022-07-03T16:50:15;29.90;81.70
42261;DHT22;27926;48.062;7.474;2022-07-03T16:52:40;29.70;79.70
42261;DHT22;27926;48.062;7.474;2022-07-03T16:55:07;29.60;79.30
42261;DHT22;27926;48.062;7.474;2022-07-03T16:57:33;29.50;78.70
42261;DHT22;27926;48.062;7.474;2022-07-03T16:59:57;29.40;79.60
42261;DHT22;27926;48.062;7.474;2022-07-03T17:02:22;29.30;80.60
42261;DHT22;27926;48.062;7.474;2022-07-03T17:04:48;29.20;80.60
42261;DHT22;27926;48.062;7.474;2022-07-03T17:07:14;29.20;81.10
42261;DHT22;27926;48.062;7.474;2022-07-03T17:09:40;29.20;82.10
42261;DHT22;27926;48.062;7.474;2022-07-03T17:12:05;29.10;82.70